Time;durP1;ratioP1;P1;durP2;ratioP2;P2;SDS_P1;SDS_P2;PMS_P1;PMS_P2;Temp;Humidity;BMP_temperature;BMP_pressure;BME280_temperature;BME280_humidity;BME280_pressure;Samples;Min_cycle;Max_cycle;Signal;HPM_P1;HPM_P2
2022/09/29 00:01:48;;;;;;;9.75;3.40;;;;;;;;;;5013197;28;20041;-82
2022/09/29 00:04:33;;;;;;;9.88;2.80;;;;;;;;;;5020743;28;20042;-81
2022/09/29 00:07:19;;;;;;;14.43;6.22;;;;;;;;;;5013220;28;20046;-82
2022/09/29 00:10:05;;;;;;;13.70;6.22;;;;;;;;;;5020398;28;20054;-81
2022/09/29 00:12:50;;;;;;;9.30;4.28;;;;;;;;;;5020201;28;20042;-82
2022/09/29 00:15:36;;;;;;;11.27;4.90;;;;;;;;;;5013923;28;20528;-82
2022/09/29 00:18:21;;;;;;;10.43;3.90;;;;;;;;;;5013708;28;20042;-82
2022/09/29 00:21:13;;;;;;;8.65;3.55;;;;;;;;;;5016431;28;20054;-81
2022/09/29 00:24:00;;;;;;;10.95;2.70;;;;;;;;;;5017363;28;20492;-82
2022/09/29 00:26:46;;;;;;;11.65;2.97;;;;;;;;;;5016788;28;20042;-82
2022/09/29 00:29:31;;;;;;;8.77;2.65;;;;;;;;;;5008557;28;20046;-82
2022/09/29 00:32:17;;;;;;;9.65;2.50;;;;;;;;;;5017196;28;20061;-83
2022/09/29 00:35:03;;;;;;;6.22;1.90;;;;;;;;;;5023447;28;20423;-81
2022/09/29 00:37:48;;;;;;;5.65;1.92;;;;;;;;;;5017384;28;20049;-82
2022/09/29 00:40:33;;;;;;;8.32;1.60;;;;;;;;;;5022968;28;20054;-82
2022/09/29 00:43:45;;;;;;;8.85;2.45;;;;;;;;;;5023133;28;20045;-80
2022/09/29 00:47:01;;;;;;;8.38;2.33;;;;;;;;;;5016592;28;20429;-81
2022/09/29 00:49:53;;;;;;;5.93;1.92;;;;;;;;;;5022655;28;20493;-83
2022/09/29 00:52:47;;;;;;;6.88;2.20;;;;;;;;;;5017227;28;20042;-81
2022/09/29 00:55:40;;;;;;;9.35;2.13;;;;;;;;;;5002987;28;20046;-81
2022/09/29 00:58:26;;;;;;;13.13;2.00;;;;;;;;;;5016799;28;20046;-80
2022/09/29 01:01:12;;;;;;;6.22;1.42;;;;;;;;;;5023074;28;20041;-81
2022/09/29 01:04:04;;;;;;;9.52;1.67;;;;;;;;;;5016580;28;20046;-81
2022/09/29 01:06:56;;;;;;;8.48;1.70;;;;;;;;;;5017006;28;20050;-81
2022/09/29 01:09:42;;;;;;;7.22;2.22;;;;;;;;;;5016003;28;20428;-81
2022/09/29 01:12:27;;;;;;;4.97;1.38;;;;;;;;;;5023193;28;20046;-81
2022/09/29 01:15:15;;;;;;;8.70;1.67;;;;;;;;;;5016713;28;20042;-81
2022/09/29 01:18:01;;;;;;;3.63;1.38;;;;;;;;;;5016039;28;20046;-81
2022/09/29 01:20:56;;;;;;;9.23;1.40;;;;;;;;;;5016762;28;20038;-80
2022/09/29 01:24:11;;;;;;;8.27;1.77;;;;;;;;;;5015509;28;20058;-82
2022/09/29 01:27:04;;;;;;;8.80;1.83;;;;;;;;;;5016261;28;20042;-81
2022/09/29 01:30:10;;;;;;;5.45;1.77;;;;;;;;;;5022457;28;20053;-82
2022/09/29 01:33:26;;;;;;;8.80;2.88;;;;;;;;;;5012402;28;20057;-82
2022/09/29 01:36:11;;;;;;;10.38;3.65;;;;;;;;;;5016552;28;20045;-81
2022/09/29 01:39:09;;;;;;;15.27;3.30;;;;;;;;;;5015624;28;20473;-83
2022/09/29 01:42:10;;;;;;;8.75;2.88;;;;;;;;;;5007625;28;20041;-82
2022/09/29 01:45:08;;;;;;;9.65;2.00;;;;;;;;;;5015574;28;20049;-81
2022/09/29 01:47:59;;;;;;;6.75;1.80;;;;;;;;;;5022923;28;20042;-82
2022/09/29 01:50:49;;;;;;;10.40;1.70;;;;;;;;;;5022816;28;20053;-81
2022/09/29 01:53:43;;;;;;;7.25;1.63;;;;;;;;;;5021838;28;20421;-81
2022/09/29 01:56:55;;;;;;;5.10;1.70;;;;;;;;;;5016085;28;20045;-81
2022/09/29 02:00:10;;;;;;;5.22;1.73;;;;;;;;;;5021715;28;20060;-81
2022/09/29 02:03:10;;;;;;;10.25;1.70;;;;;;;;;;5022534;28;20046;-81
2022/09/29 02:06:02;;;;;;;4.53;1.50;;;;;;;;;;5016045;28;20050;-81
2022/09/29 02:08:59;;;;;;;7.80;2.00;;;;;;;;;;5015583;28;20037;-82
2022/09/29 02:11:45;;;;;;;6.88;2.00;;;;;;;;;;5022166;28;20061;-82
2022/09/29 02:14:38;;;;;;;6.25;1.58;;;;;;;;;;5015163;28;20057;-82
2022/09/29 02:17:34;;;;;;;6.32;1.60;;;;;;;;;;5015107;28;20041;-81
2022/09/29 02:20:21;;;;;;;7.43;1.50;;;;;;;;;;5014559;28;20042;-81
2022/09/29 02:23:06;;;;;;;9.02;1.88;;;;;;;;;;5015186;28;20065;-81
2022/09/29 02:25:54;;;;;;;7.45;1.58;;;;;;;;;;5015173;28;20113;-81
2022/09/29 02:28:41;;;;;;;13.23;1.60;;;;;;;;;;5014809;28;20061;-81
2022/09/29 02:31:26;;;;;;;7.20;1.73;;;;;;;;;;5015545;28;20053;-83
2022/09/29 02:34:16;;;;;;;6.82;1.33;;;;;;;;;;5015635;28;20053;-80
2022/09/29 02:37:04;;;;;;;8.15;1.70;;;;;;;;;;5001006;28;20054;-82
2022/09/29 02:39:53;;;;;;;9.45;3.33;;;;;;;;;;5015405;28;20041;-83
2022/09/29 02:42:56;;;;;;;12.23;3.35;;;;;;;;;;5020262;28;20109;-81
2022/09/29 02:46:05;;;;;;;10.80;3.58;;;;;;;;;;5015183;28;20477;-81
2022/09/29 02:49:14;;;;;;;8.75;3.90;;;;;;;;;;5014257;28;20409;-81
2022/09/29 02:52:21;;;;;;;9.10;2.60;;;;;;;;;;5014617;28;20420;-81
2022/09/29 02:55:36;;;;;;;15.27;3.30;;;;;;;;;;5014830;28;20045;-81
2022/09/29 02:58:37;;;;;;;9.93;1.83;;;;;;;;;;5023607;28;20046;-81
2022/09/29 03:01:22;;;;;;;10.35;2.17;;;;;;;;;;5019547;28;20401;-82
2022/09/29 03:04:08;;;;;;;7.20;1.80;;;;;;;;;;5017893;28;20054;-81
2022/09/29 03:06:54;;;;;;;8.82;2.08;;;;;;;;;;5018393;28;20041;-81
2022/09/29 03:09:39;;;;;;;5.30;2.00;;;;;;;;;;5018276;28;20034;-80
2022/09/29 03:12:25;;;;;;;13.25;2.85;;;;;;;;;;5018555;28;20053;-82
2022/09/29 03:15:11;;;;;;;8.55;1.88;;;;;;;;;;5025120;28;20050;-81
2022/09/29 03:17:56;;;;;;;7.85;1.80;;;;;;;;;;5015222;28;20038;-82
2022/09/29 03:20:41;;;;;;;6.43;1.88;;;;;;;;;;5014169;28;20046;-82
2022/09/29 03:23:27;;;;;;;5.63;1.60;;;;;;;;;;5017714;28;20049;-82
2022/09/29 03:26:13;;;;;;;10.88;3.03;;;;;;;;;;5006084;28;20050;-82
2022/09/29 03:28:59;;;;;;;7.47;2.90;;;;;;;;;;5014206;28;20050;-80
2022/09/29 03:31:44;;;;;;;6.65;2.10;;;;;;;;;;5020706;28;20050;-81
2022/09/29 03:34:30;;;;;;;10.75;3.60;;;;;;;;;;5009836;28;20397;-81
2022/09/29 03:37:15;;;;;;;77.07;29.88;;;;;;;;;;5017704;28;20057;-81
2022/09/29 03:40:02;;;;;;;31.88;12.55;;;;;;;;;;5018921;28;20046;-81
2022/09/29 03:42:47;;;;;;;6.47;2.58;;;;;;;;;;5019932;28;20045;-81
2022/09/29 03:45:33;;;;;;;8.75;2.47;;;;;;;;;;5000857;28;20042;-82
2022/09/29 03:48:20;;;;;;;6.80;2.08;;;;;;;;;;5020757;28;20050;-82
2022/09/29 03:51:05;;;;;;;6.20;1.73;;;;;;;;;;5018701;28;20053;-82
2022/09/29 03:53:51;;;;;;;6.97;1.85;;;;;;;;;;5002827;28;20046;-82
2022/09/29 03:56:37;;;;;;;5.30;2.03;;;;;;;;;;5016335;28;20050;-82
2022/09/29 03:59:22;;;;;;;6.20;1.90;;;;;;;;;;5016423;28;20050;-81
2022/09/29 04:02:08;;;;;;;5.20;2.05;;;;;;;;;;5017857;28;20063;-80
2022/09/29 04:04:54;;;;;;;7.20;2.33;;;;;;;;;;5024638;28;20045;-82
2022/09/29 04:07:40;;;;;;;7.82;2.75;;;;;;;;;;5033739;28;20050;-81
2022/09/29 04:10:25;;;;;;;7.55;2.38;;;;;;;;;;5010307;28;20042;-82
2022/09/29 04:13:11;;;;;;;12.77;2.65;;;;;;;;;;5027893;28;20053;-81
2022/09/29 04:16:01;;;;;;;6.40;2.22;;;;;;;;;;5036563;28;20404;-82
2022/09/29 04:18:46;;;;;;;9.05;2.03;;;;;;;;;;5037711;28;20050;-81
2022/09/29 04:21:30;;;;;;;6.13;1.90;;;;;;;;;;5036918;28;20046;-81
2022/09/29 04:24:17;;;;;;;10.18;2.00;;;;;;;;;;5037302;28;20065;-81
2022/09/29 04:27:02;;;;;;;10.02;2.00;;;;;;;;;;5034014;28;20388;-81
2022/09/29 04:29:48;;;;;;;7.95;1.95;;;;;;;;;;5017670;28;20054;-81
2022/09/29 04:32:34;;;;;;;10.85;2.38;;;;;;;;;;5037000;28;20049;-83
2022/09/29 04:35:19;;;;;;;7.55;1.98;;;;;;;;;;5036499;28;20045;-82
2022/09/29 04:38:07;;;;;;;12.88;2.88;;;;;;;;;;5021141;28;20057;-82
2022/09/29 04:40:51;;;;;;;7.65;1.90;;;;;;;;;;5023129;28;20058;-82
2022/09/29 04:43:37;;;;;;;4.47;1.60;;;;;;;;;;5023668;28;20049;-81
2022/09/29 04:46:23;;;;;;;9.35;1.40;;;;;;;;;;5017005;28;20041;-82
2022/09/29 04:49:08;;;;;;;5.30;1.58;;;;;;;;;;5012563;28;20046;-82
2022/09/29 04:51:54;;;;;;;9.82;2.08;;;;;;;;;;4997168;28;20046;-81
2022/09/29 04:54:39;;;;;;;8.45;1.50;;;;;;;;;;5014546;28;20061;-82
2022/09/29 04:57:24;;;;;;;5.05;2.05;;;;;;;;;;5043335;28;20053;-81
2022/09/29 05:00:11;;;;;;;5.40;1.67;;;;;;;;;;5036774;28;20041;-82
2022/09/29 05:02:57;;;;;;;7.30;1.52;;;;;;;;;;5033231;28;20397;-82
2022/09/29 05:05:42;;;;;;;6.22;1.63;;;;;;;;;;5004102;28;20046;-81
2022/09/29 05:08:27;;;;;;;8.10;1.58;;;;;;;;;;4996448;28;20494;-84
2022/09/29 05:11:13;;;;;;;7.40;2.70;;;;;;;;;;5003023;28;20050;-84
2022/09/29 05:14:10;;;;;;;13.40;3.40;;;;;;;;;;4988418;28;20050;-87
2022/09/29 05:16:56;;;;;;;11.48;3.70;;;;;;;;;;4987599;28;20046;-85
2022/09/29 05:19:42;;;;;;;8.25;3.30;;;;;;;;;;4981129;28;20054;-86
2022/09/29 05:22:27;;;;;;;9.30;2.80;;;;;;;;;;4994886;28;20043;-84
2022/09/29 05:25:13;;;;;;;8.35;2.72;;;;;;;;;;5003206;28;20050;-83
2022/09/29 05:27:59;;;;;;;12.00;3.92;;;;;;;;;;4996601;28;20042;-85
2022/09/29 05:30:44;;;;;;;6.97;2.60;;;;;;;;;;4996123;28;20389;-84
2022/09/29 05:33:30;;;;;;;7.30;3.05;;;;;;;;;;5001863;28;20042;-85
2022/09/29 05:36:15;;;;;;;8.07;2.97;;;;;;;;;;4996517;28;20042;-84
2022/09/29 05:39:00;;;;;;;5.63;1.85;;;;;;;;;;4996610;28;20374;-84
2022/09/29 05:41:47;;;;;;;4.32;1.50;;;;;;;;;;5004816;28;20042;-85
2022/09/29 05:44:32;;;;;;;8.05;2.10;;;;;;;;;;4984871;28;20042;-85
2022/09/29 05:47:18;;;;;;;4.45;2.17;;;;;;;;;;4996830;28;20050;-84
2022/09/29 05:50:04;;;;;;;7.82;2.33;;;;;;;;;;4996207;28;20050;-84
2022/09/29 05:52:51;;;;;;;9.57;2.13;;;;;;;;;;4995641;28;20039;-85
2022/09/29 05:55:37;;;;;;;9.45;1.80;;;;;;;;;;5002327;28;20409;-85
2022/09/29 05:58:22;;;;;;;12.25;3.05;;;;;;;;;;4995714;28;20047;-85
2022/09/29 06:01:10;;;;;;;9.15;2.65;;;;;;;;;;5001090;28;20054;-86
2022/09/29 06:03:56;;;;;;;5.55;1.90;;;;;;;;;;4995194;28;20035;-85
2022/09/29 06:06:42;;;;;;;11.98;2.95;;;;;;;;;;4995488;28;20042;-85
2022/09/29 06:09:27;;;;;;;11.77;3.03;;;;;;;;;;4995206;28;20046;-85
2022/09/29 06:12:13;;;;;;;14.10;3.45;;;;;;;;;;4995508;28;20054;-85
2022/09/29 06:14:58;;;;;;;12.45;3.33;;;;;;;;;;4996042;28;20046;-85
2022/09/29 06:17:44;;;;;;;11.48;3.65;;;;;;;;;;4995715;28;20054;-85
2022/09/29 06:20:32;;;;;;;11.00;3.55;;;;;;;;;;5003359;28;20046;-85
2022/09/29 06:23:19;;;;;;;11.38;4.53;;;;;;;;;;4997062;28;20051;-85
2022/09/29 06:26:08;;;;;;;8.35;4.20;;;;;;;;;;4997154;28;20058;-84
2022/09/29 06:28:57;;;;;;;12.27;4.65;;;;;;;;;;4997078;28;20482;-86
2022/09/29 06:31:42;;;;;;;16.40;5.20;;;;;;;;;;4985320;28;20047;-85
2022/09/29 06:34:27;;;;;;;9.40;4.57;;;;;;;;;;4998488;28;20057;-87
2022/09/29 06:40:19;;;;;;;10.10;3.13;;;;;;;;;;4991251;28;20058;-85
2022/09/29 06:43:06;;;;;;;7.78;2.08;;;;;;;;;;5001182;28;20058;-84
2022/09/29 06:45:51;;;;;;;8.75;2.85;;;;;;;;;;5001845;28;20050;-84
2022/09/29 06:48:36;;;;;;;9.52;3.72;;;;;;;;;;4995276;28;20042;-84
2022/09/29 06:51:24;;;;;;;9.93;4.72;;;;;;;;;;4995310;28;20050;-84
2022/09/29 06:54:10;;;;;;;11.45;5.95;;;;;;;;;;5001546;28;20046;-84
2022/09/29 06:56:57;;;;;;;15.50;7.90;;;;;;;;;;4995490;28;20050;-83
2022/09/29 06:59:43;;;;;;;12.48;6.53;;;;;;;;;;4987436;28;20055;-84
2022/09/29 07:02:29;;;;;;;17.08;6.47;;;;;;;;;;4987012;28;20046;-84
2022/09/29 07:05:15;;;;;;;11.18;5.22;;;;;;;;;;4995178;28;20398;-85
2022/09/29 07:08:02;;;;;;;13.60;5.40;;;;;;;;;;4979830;28;20050;-83
2022/09/29 07:10:47;;;;;;;11.45;4.75;;;;;;;;;;4994736;28;20046;-85
2022/09/29 07:13:33;;;;;;;13.50;3.95;;;;;;;;;;5001217;28;20058;-84
2022/09/29 07:16:22;;;;;;;14.80;6.65;;;;;;;;;;4994089;28;20047;-83
2022/09/29 07:19:09;;;;;;;13.13;7.93;;;;;;;;;;4999943;28;20413;-84
2022/09/29 07:21:53;;;;;;;19.48;7.93;;;;;;;;;;4996242;28;20046;-84
2022/09/29 07:24:39;;;;;;;11.13;5.47;;;;;;;;;;4994162;28;20054;-84
2022/09/29 07:27:25;;;;;;;15.88;6.32;;;;;;;;;;4994374;28;20490;-84
2022/09/29 07:30:10;;;;;;;14.30;7.22;;;;;;;;;;4988188;28;20405;-84
2022/09/29 07:32:56;;;;;;;13.68;6.50;;;;;;;;;;4998786;28;20047;-84
2022/09/29 07:35:41;;;;;;;17.70;6.95;;;;;;;;;;4997876;28;20398;-84
2022/09/29 07:38:28;;;;;;;13.70;6.60;;;;;;;;;;4999120;28;20046;-84
2022/09/29 07:41:15;;;;;;;13.75;6.60;;;;;;;;;;4998889;28;20042;-83
2022/09/29 07:44:00;;;;;;;14.30;6.90;;;;;;;;;;4997204;28;20034;-84
2022/09/29 07:46:47;;;;;;;11.38;6.53;;;;;;;;;;4998671;28;20075;-83
2022/09/29 07:49:33;;;;;;;11.20;6.43;;;;;;;;;;4998509;28;20062;-84
2022/09/29 07:52:19;;;;;;;16.95;6.80;;;;;;;;;;5003876;28;20050;-84
2022/09/29 07:55:06;;;;;;;12.85;6.25;;;;;;;;;;4998171;28;20062;-84
2022/09/29 07:57:51;;;;;;;9.07;3.03;;;;;;;;;;4997617;28;20042;-84
2022/09/29 08:00:36;;;;;;;10.55;3.22;;;;;;;;;;4998293;28;20042;-84
2022/09/29 08:03:24;;;;;;;14.30;4.18;;;;;;;;;;4989634;28;20050;-83
2022/09/29 08:06:10;;;;;;;9.15;2.60;;;;;;;;;;4998535;28;20042;-84
2022/09/29 08:08:56;;;;;;;6.95;2.47;;;;;;;;;;4998025;28;20043;-84
2022/09/29 08:11:42;;;;;;;6.07;2.65;;;;;;;;;;5004842;28;20058;-83
2022/09/29 08:14:28;;;;;;;8.93;2.80;;;;;;;;;;5004343;28;20046;-85
2022/09/29 08:17:13;;;;;;;13.50;3.50;;;;;;;;;;4997528;28;20042;-85
2022/09/29 08:19:59;;;;;;;8.55;3.50;;;;;;;;;;4997924;28;20055;-83
2022/09/29 08:22:45;;;;;;;11.27;4.05;;;;;;;;;;4997740;28;20058;-82
2022/09/29 08:25:31;;;;;;;9.38;3.53;;;;;;;;;;4997629;28;20050;-83
2022/09/29 08:28:16;;;;;;;9.38;4.20;;;;;;;;;;4998315;28;20050;-83
2022/09/29 08:31:08;;;;;;;10.10;3.90;;;;;;;;;;4997628;28;20433;-85
2022/09/29 08:33:57;;;;;;;11.82;3.90;;;;;;;;;;4998460;28;20054;-84
2022/09/29 08:36:42;;;;;;;14.55;4.32;;;;;;;;;;5003073;28;20050;-83
2022/09/29 08:39:28;;;;;;;8.95;4.20;;;;;;;;;;4997430;28;20046;-84
2022/09/29 08:42:38;;;;;;;11.90;4.47;;;;;;;;;;4997821;28;20046;-84
2022/09/29 08:45:30;;;;;;;10.70;3.42;;;;;;;;;;5004021;28;20057;-82
2022/09/29 08:48:21;;;;;;;7.97;2.88;;;;;;;;;;4997417;28;20054;-84
2022/09/29 08:51:29;;;;;;;9.43;3.25;;;;;;;;;;4997584;28;20046;-86
2022/09/29 08:54:23;;;;;;;13.40;2.75;;;;;;;;;;5005376;28;20402;-84
2022/09/29 08:57:19;;;;;;;11.68;3.70;;;;;;;;;;5001059;28;20054;-83
2022/09/29 09:00:10;;;;;;;9.80;3.17;;;;;;;;;;4997011;28;20485;-83
2022/09/29 09:03:10;;;;;;;6.07;2.65;;;;;;;;;;4996996;28;20038;-83
2022/09/29 09:06:32;;;;;;;11.77;3.80;;;;;;;;;;4996763;28;20050;-83
2022/09/29 09:09:49;;;;;;;16.27;4.70;;;;;;;;;;4994519;28;20042;-83
2022/09/29 09:12:50;;;;;;;8.00;2.75;;;;;;;;;;5003342;28;20474;-84
2022/09/29 09:16:20;;;;;;;11.18;3.22;;;;;;;;;;4997364;28;20042;-84
2022/09/29 09:19:35;;;;;;;6.72;2.60;;;;;;;;;;4996836;28;20046;-83
2022/09/29 09:22:32;;;;;;;7.63;3.35;;;;;;;;;;5003007;28;20410;-85
2022/09/29 09:25:27;;;;;;;9.65;3.25;;;;;;;;;;4983564;28;20051;-83
2022/09/29 09:28:26;;;;;;;10.85;4.13;;;;;;;;;;4976723;28;20043;-83
2022/09/29 09:31:25;;;;;;;3.63;2.40;;;;;;;;;;4984206;28;20055;-85
2022/09/29 09:34:15;;;;;;;6.75;3.40;;;;;;;;;;4977053;28;20070;-85
2022/09/29 09:37:04;;;;;;;7.85;2.78;;;;;;;;;;4983432;28;20043;-83
2022/09/29 09:40:05;;;;;;;10.38;3.35;;;;;;;;;;4976809;28;20046;-85
2022/09/29 09:43:02;;;;;;;5.80;2.00;;;;;;;;;;4976800;28;20039;-86
2022/09/29 09:46:01;;;;;;;6.40;2.90;;;;;;;;;;4972769;28;20043;-86
2022/09/29 09:48:52;;;;;;;7.60;2.70;;;;;;;;;;4981976;28;20042;-84
2022/09/29 09:51:44;;;;;;;9.65;2.72;;;;;;;;;;4982155;28;20051;-83
2022/09/29 09:54:37;;;;;;;5.80;2.30;;;;;;;;;;4969429;28;20042;-83
2022/09/29 09:57:42;;;;;;;6.18;2.83;;;;;;;;;;4976436;28;20046;-85
2022/09/29 10:00:43;;;;;;;8.77;3.08;;;;;;;;;;4969445;28;20390;-87
2022/09/29 10:03:33;;;;;;;12.07;3.60;;;;;;;;;;4971305;28;20050;-84
2022/09/29 10:06:19;;;;;;;9.70;3.53;;;;;;;;;;4969681;28;20059;-83
2022/09/29 10:09:05;;;;;;;7.50;3.15;;;;;;;;;;4977347;28;20047;-84
2022/09/29 10:11:50;;;;;;;10.55;3.38;;;;;;;;;;4985359;28;20042;-86
2022/09/29 10:14:37;;;;;;;9.00;3.78;;;;;;;;;;4981976;28;20047;-85
2022/09/29 10:17:26;;;;;;;13.13;3.28;;;;;;;;;;4975971;28;20043;-85
2022/09/29 10:20:12;;;;;;;7.13;3.05;;;;;;;;;;4976797;28;20051;-85
2022/09/29 10:23:27;;;;;;;10.25;3.90;;;;;;;;;;4980792;28;20046;-84
2022/09/29 10:26:24;;;;;;;9.73;3.75;;;;;;;;;;4995767;28;20058;-86
2022/09/29 10:29:18;;;;;;;8.38;3.50;;;;;;;;;;5003004;28;20046;-86
2022/09/29 10:32:21;;;;;;;8.57;3.00;;;;;;;;;;4991806;28;20417;-85
2022/09/29 10:35:22;;;;;;;5.15;2.90;;;;;;;;;;4996618;28;20498;-83
2022/09/29 10:38:14;;;;;;;7.82;3.03;;;;;;;;;;5003730;28;20050;-84
2022/09/29 10:41:07;;;;;;;9.48;3.28;;;;;;;;;;4996991;28;20489;-82
2022/09/29 10:43:52;;;;;;;10.25;3.47;;;;;;;;;;4996935;28;20043;-84
2022/09/29 10:46:47;;;;;;;8.07;3.20;;;;;;;;;;4996578;28;20051;-84
2022/09/29 10:49:33;;;;;;;8.35;3.80;;;;;;;;;;4996174;28;20051;-81
2022/09/29 10:52:27;;;;;;;9.82;3.58;;;;;;;;;;5002421;28;20494;-81
2022/09/29 10:55:19;;;;;;;9.50;3.10;;;;;;;;;;5002304;28;20054;-81
2022/09/29 10:58:31;;;;;;;5.47;2.95;;;;;;;;;;5001716;28;20050;-79
2022/09/29 11:01:18;;;;;;;7.78;3.35;;;;;;;;;;5005895;28;20046;-80
2022/09/29 11:04:14;;;;;;;8.57;3.60;;;;;;;;;;4997748;28;20042;-79
2022/09/29 11:07:09;;;;;;;10.77;4.32;;;;;;;;;;4998592;28;20490;-79
2022/09/29 11:09:54;;;;;;;13.82;4.20;;;;;;;;;;5000305;28;20425;-82
2022/09/29 11:12:40;;;;;;;10.40;3.90;;;;;;;;;;4999558;28;20042;-82
2022/09/29 11:15:44;;;;;;;6.97;3.17;;;;;;;;;;4998780;28;20042;-82
2022/09/29 11:18:34;;;;;;;7.25;3.67;;;;;;;;;;4991889;28;20058;-80
2022/09/29 11:21:20;;;;;;;8.85;3.60;;;;;;;;;;5009122;28;20054;-83
2022/09/29 11:24:28;;;;;;;8.02;2.70;;;;;;;;;;4993548;28;20055;-83
2022/09/29 11:27:56;;;;;;;6.65;3.03;;;;;;;;;;5000402;28;20042;-81
2022/09/29 11:31:08;;;;;;;9.85;2.72;;;;;;;;;;4971198;28;20050;-82
2022/09/29 11:34:06;;;;;;;5.55;2.83;;;;;;;;;;5001698;28;20058;-82
2022/09/29 11:37:31;;;;;;;7.53;3.00;;;;;;;;;;5000302;28;20050;-83
2022/09/29 11:40:47;;;;;;;7.78;2.90;;;;;;;;;;4991270;28;20050;-87
2022/09/29 11:43:43;;;;;;;9.88;3.45;;;;;;;;;;5004032;28;20042;-84
2022/09/29 11:46:53;;;;;;;6.97;3.15;;;;;;;;;;5005612;28;20054;-86
2022/09/29 11:50:17;;;;;;;9.65;2.95;;;;;;;;;;5000617;28;20046;-87
2022/09/29 11:53:30;;;;;;;7.50;3.20;;;;;;;;;;4993723;28;20070;-86
2022/09/29 11:56:34;;;;;;;12.02;2.80;;;;;;;;;;4992341;28;20054;-82
2022/09/29 11:59:45;;;;;;;7.13;2.85;;;;;;;;;;4999922;28;20046;-83
2022/09/29 12:03:04;;;;;;;4.40;2.38;;;;;;;;;;5003838;28;20042;-79
2022/09/29 12:06:15;;;;;;;7.28;2.83;;;;;;;;;;5003794;28;20055;-79
2022/09/29 12:09:32;;;;;;;8.70;3.13;;;;;;;;;;5002958;28;20055;-81
2022/09/29 12:12:54;;;;;;;8.05;2.63;;;;;;;;;;5003362;28;20047;-81
2022/09/29 12:15:51;;;;;;;4.55;1.75;;;;;;;;;;4965050;28;20417;-80
2022/09/29 12:19:15;;;;;;;4.00;2.10;;;;;;;;;;5004429;28;20046;-82
2022/09/29 12:22:02;;;;;;;4.90;1.90;;;;;;;;;;4996371;28;20046;-81
2022/09/29 12:24:54;;;;;;;4.43;1.67;;;;;;;;;;5004333;28;20042;-82
2022/09/29 12:27:43;;;;;;;5.35;2.10;;;;;;;;;;5004845;28;20042;-86
2022/09/29 12:30:40;;;;;;;8.00;1.95;;;;;;;;;;5003086;28;20054;-84
2022/09/29 12:33:36;;;;;;;4.13;1.95;;;;;;;;;;5003098;28;20058;-86
2022/09/29 12:36:52;;;;;;;5.57;2.38;;;;;;;;;;5002748;28;20050;-83
2022/09/29 12:40:14;;;;;;;6.70;2.15;;;;;;;;;;5002887;28;20046;-87
2022/09/29 12:43:09;;;;;;;4.57;2.10;;;;;;;;;;4965235;28;20409;-83
2022/09/29 12:46:21;;;;;;;5.13;2.40;;;;;;;;;;4989279;28;20055;-85
2022/09/29 12:49:29;;;;;;;6.65;2.40;;;;;;;;;;4982515;28;20050;-87
2022/09/29 12:52:28;;;;;;;5.40;2.20;;;;;;;;;;4996024;28;20054;-86
2022/09/29 13:00:21;;;;;;;6.10;2.05;;;;;;;;;;4976720;28;20054;-83
2022/09/29 13:03:39;;;;;;;5.53;2.25;;;;;;;;;;4989695;28;20393;-87
2022/09/29 13:06:50;;;;;;;4.50;1.80;;;;;;;;;;5002548;28;20054;-85
2022/09/29 13:10:02;;;;;;;3.67;1.40;;;;;;;;;;5008053;28;20490;-86
2022/09/29 13:13:13;;;;;;;5.10;1.73;;;;;;;;;;4991321;28;20046;-85
2022/09/29 13:16:10;;;;;;;2.92;1.20;;;;;;;;;;4995343;28;20042;-87
2022/09/29 13:19:24;;;;;;;5.72;1.70;;;;;;;;;;5000137;28;20058;-86
2022/09/29 13:22:24;;;;;;;5.15;2.00;;;;;;;;;;4987746;28;20409;-85
2022/09/29 13:25:37;;;;;;;4.22;1.30;;;;;;;;;;4996633;28;20073;-87
2022/09/29 13:28:31;;;;;;;2.95;1.50;;;;;;;;;;4974039;28;20389;-85
2022/09/29 13:31:24;;;;;;;10.25;1.70;;;;;;;;;;4983521;28;20058;-85
2022/09/29 13:34:37;;;;;;;3.67;1.50;;;;;;;;;;5003430;28;20457;-82
2022/09/29 13:38:30;;;;;;;;;;;;;;;;;;;;;
2022/09/29 13:42:17;;;;;;;4.63;1.30;;;;;;;;;;4955845;29;20077;-86
2022/09/29 13:45:33;;;;;;;5.53;1.13;;;;;;;;;;4945624;29;20387;-88
2022/09/29 14:06:15;;;;;;;3.75;1.30;;;;;;;;;;4941808;29;20044;-88
2022/09/29 14:23:02;;;;;;;11.13;5.05;;;;;;;;;;4864876;29;20049;-85
2022/09/29 14:26:45;;;;;;;5.97;2.97;;;;;;;;;;4905550;29;20056;-84
2022/09/29 14:30:25;;;;;;;4.03;1.63;;;;;;;;;;4968544;28;20054;-88
2022/09/29 14:33:51;;;;;;;7.10;1.40;;;;;;;;;;4941981;29;20474;-86
2022/09/29 14:37:07;;;;;;;2.47;1.40;;;;;;;;;;4934540;29;20051;-86
2022/09/29 14:52:29;;;;;;;4.95;2.13;;;;;;;;;;4874345;29;20049;-85
2022/09/29 14:55:32;;;;;;;3.95;2.13;;;;;;;;;;4875086;29;20049;-84
2022/09/29 14:58:28;;;;;;;3.30;1.20;;;;;;;;;;4894472;29;20044;-82
2022/09/29 15:01:21;;;;;;;2.80;1.10;;;;;;;;;;4937827;28;20061;-82
2022/09/29 15:04:34;;;;;;;6.45;1.20;;;;;;;;;;4998046;28;20046;-84
2022/09/29 15:07:45;;;;;;;2.17;0.73;;;;;;;;;;5001148;28;20050;-83
2022/09/29 15:10:58;;;;;;;3.00;0.90;;;;;;;;;;5018392;28;20072;-82
2022/09/29 15:13:46;;;;;;;1.05;0.80;;;;;;;;;;5005823;28;20054;-82
2022/09/29 15:17:06;;;;;;;4.43;1.17;;;;;;;;;;5017693;28;20050;-83
2022/09/29 15:20:06;;;;;;;0.95;0.63;;;;;;;;;;4989821;28;20501;-83
2022/09/29 15:23:26;;;;;;;8.05;1.15;;;;;;;;;;5014468;28;20481;-84
2022/09/29 15:26:14;;;;;;;3.38;1.20;;;;;;;;;;4994813;28;20050;-82
2022/09/29 15:29:04;;;;;;;2.10;1.30;;;;;;;;;;4983074;28;20050;-82
2022/09/29 15:31:50;;;;;;;1.67;1.23;;;;;;;;;;4954435;28;20059;-89
2022/09/29 15:34:38;;;;;;;5.97;1.52;;;;;;;;;;4968349;28;20058;-85
2022/09/29 15:37:23;;;;;;;2.58;1.00;;;;;;;;;;4981353;28;20046;-86
2022/09/29 15:40:14;;;;;;;4.85;2.00;;;;;;;;;;4975769;28;20502;-85
2022/09/29 15:43:00;;;;;;;9.20;3.58;;;;;;;;;;4968150;28;20422;-84
2022/09/29 15:45:54;;;;;;;8.18;3.05;;;;;;;;;;4968137;28;20470;-84
2022/09/29 15:48:39;;;;;;;18.70;7.65;;;;;;;;;;4980974;28;20054;-84
2022/09/29 15:51:25;;;;;;;5.07;2.13;;;;;;;;;;4977698;28;20043;-83
2022/09/29 15:54:13;;;;;;;3.50;1.73;;;;;;;;;;4971141;28;20059;-83
2022/09/29 16:00:05;;;;;;;2.85;1.50;;;;;;;;;;4984777;28;20512;-85
2022/09/29 16:03:26;;;;;;;13.65;5.50;;;;;;;;;;4979243;28;20051;-84
2022/09/29 16:06:14;;;;;;;6.80;2.78;;;;;;;;;;4984003;28;20059;-86
2022/09/29 16:09:06;;;;;;;4.88;2.50;;;;;;;;;;4984510;28;20050;-84
2022/09/29 16:11:52;;;;;;;4.57;2.58;;;;;;;;;;4979498;28;20047;-84
2022/09/29 16:14:37;;;;;;;13.00;4.75;;;;;;;;;;4983657;28;20050;-84
2022/09/29 16:17:24;;;;;;;29.85;12.00;;;;;;;;;;4984198;28;20043;-83
2022/09/29 16:20:25;;;;;;;59.42;19.10;;;;;;;;;;4978207;28;20047;-82
2022/09/29 16:23:41;;;;;;;59.13;18.00;;;;;;;;;;4977938;28;20046;-84
2022/09/29 16:26:34;;;;;;;50.83;15.23;;;;;;;;;;4974803;28;20416;-85
2022/09/29 16:29:32;;;;;;;9.45;3.75;;;;;;;;;;5004218;28;20405;-85
2022/09/29 16:32:33;;;;;;;31.80;10.32;;;;;;;;;;4990803;28;20046;-87
2022/09/29 16:35:40;;;;;;;5.25;2.13;;;;;;;;;;5003768;28;20054;-84
2022/09/29 16:38:43;;;;;;;7.65;3.15;;;;;;;;;;5003840;28;20462;-85
2022/09/29 16:41:36;;;;;;;5.70;2.90;;;;;;;;;;5003354;28;20429;-85
2022/09/29 16:44:34;;;;;;;20.08;6.60;;;;;;;;;;5004281;28;20046;-88
2022/09/29 16:47:22;;;;;;;13.38;4.68;;;;;;;;;;4990359;28;20054;-84
2022/09/29 16:50:13;;;;;;;15.40;6.70;;;;;;;;;;4997011;28;20050;-88
2022/09/29 16:52:58;;;;;;;5.03;3.05;;;;;;;;;;4990099;28;20047;-83
2022/09/29 17:04:44;;;;;;;6.05;3.42;;;;;;;;;;5002709;28;20042;-86
2022/09/29 17:07:43;;;;;;;5.60;3.58;;;;;;;;;;4990017;28;20050;-88
2022/09/29 17:10:28;;;;;;;;;;;;;;;;;;4989506;28;20050;-87
2022/09/29 17:13:44;;;;;;;5.13;3.10;;;;;;;;;;4976233;28;19913;-89
2022/09/29 17:16:30;;;;;;;3.92;2.20;;;;;;;;;;4988666;28;20058;-84
2022/09/29 17:19:15;;;;;;;5.65;3.05;;;;;;;;;;4989240;28;20062;-86
2022/09/29 17:22:01;;;;;;;7.53;5.25;;;;;;;;;;4988964;28;20047;-86
2022/09/29 17:24:48;;;;;;;6.85;4.40;;;;;;;;;;4997850;28;20050;-85
2022/09/29 17:30:39;;;;;;;6.15;3.15;;;;;;;;;;5002619;28;20054;-87
2022/09/29 17:33:25;;;;;;;6.95;4.90;;;;;;;;;;5002487;28;20485;-88
2022/09/29 17:36:13;;;;;;;5.13;3.70;;;;;;;;;;4988865;28;20057;-86
2022/09/29 17:39:02;;;;;;;12.88;9.43;;;;;;;;;;4988534;28;20050;-89
2022/09/29 17:42:21;;;;;;;21.25;11.95;;;;;;;;;;4989106;28;20051;-85
2022/09/29 17:50:46;;;;;;;201.38;63.72;;;;;;;;;;5004021;28;20393;-86
2022/09/29 17:54:35;;;;;;;;;;;;;;;;;;;;;
2022/09/29 17:58:04;;;;;;;;;;;;;;;;;;;;;
2022/09/29 18:05:25;;;;;;;9.52;5.20;;;;;;;;;;4995130;28;20054;-86
2022/09/29 18:08:38;;;;;;;33.58;10.98;;;;;;;;;;4988810;28;20042;-87
2022/09/29 18:11:57;;;;;;;48.15;17.98;;;;;;;;;;5003750;28;20046;-87
2022/09/29 18:15:23;;;;;;;18.15;8.40;;;;;;;;;;4991148;28;20054;-86
2022/09/29 18:18:28;;;;;;;21.08;10.07;;;;;;;;;;5003286;28;20051;-88
2022/09/29 18:21:36;;;;;;;39.60;23.73;;;;;;;;;;4977798;28;20055;-85
2022/09/29 18:24:30;;;;;;;22.23;15.02;;;;;;;;;;4981037;28;20058;-86
2022/09/29 18:27:42;;;;;;;;;;;;;;;;;;4983387;28;20046;-87
2022/09/29 18:34:34;;;;;;;30.95;15.57;;;;;;;;;;4970839;28;20055;-86
2022/09/29 18:37:20;;;;;;;37.10;17.77;;;;;;;;;;4970682;28;20043;-85
2022/09/29 18:40:06;;;;;;;21.13;10.43;;;;;;;;;;4968936;28;20050;-85
2022/09/29 18:42:54;;;;;;;15.07;8.52;;;;;;;;;;4968640;28;20478;-86
2022/09/29 18:45:42;;;;;;;11.30;6.32;;;;;;;;;;4963266;28;20047;-86